Time;durP1;ratioP1;P1;durP2;ratioP2;P2;SDS_P1;SDS_P2;PMS_P1;PMS_P2;Temp;Humidity;BMP_temperature;BMP_pressure;BME280_temperature;BME280_humidity;BME280_pressure;Samples;Min_cycle;Max_cycle;Signal;HPM_P1;HPM_P2
2021/12/27 00:01:52;;;;;;;184.97;62.87;;;;;;;-15.02;100.00;99653.22;5034957;28;20113;-68
2021/12/27 00:04:37;;;;;;;178.10;62.00;;;;;;;-15.01;100.00;99646.56;5034900;28;20045;-68
2021/12/27 00:07:22;;;;;;;169.30;62.40;;;;;;;-15.14;100.00;99650.72;5034957;28;20450;-68
2021/12/27 00:10:07;;;;;;;173.27;63.73;;;;;;;-15.07;100.00;99638.59;5033157;28;20114;-68
2021/12/27 00:12:52;;;;;;;163.63;60.53;;;;;;;-15.09;100.00;99641.00;5034736;28;20062;-69
2021/12/27 00:15:39;;;;;;;186.67;65.60;;;;;;;-15.07;100.00;99634.44;5034112;28;20060;-69
2021/12/27 00:18:23;;;;;;;168.13;58.80;;;;;;;-15.04;100.00;99623.72;5034808;28;20046;-68
2021/12/27 00:21:07;;;;;;;177.77;63.50;;;;;;;-15.06;100.00;99627.78;5034888;28;20392;-68
2021/12/27 00:23:52;;;;;;;199.97;66.53;;;;;;;-15.07;100.00;99623.53;5034757;28;20072;-69
2021/12/27 00:26:36;;;;;;;159.63;57.23;;;;;;;-15.07;100.00;99626.03;5033911;28;20056;-68
2021/12/27 00:29:21;;;;;;;148.67;57.20;;;;;;;-15.13;100.00;99617.28;5033931;28;20057;-68
2021/12/27 00:32:06;;;;;;;155.23;53.20;;;;;;;-15.16;100.00;99621.22;5034641;28;20041;-68
2021/12/27 00:34:50;;;;;;;151.53;53.17;;;;;;;-15.13;100.00;99624.81;5033925;28;20052;-69
2021/12/27 00:37:35;;;;;;;150.13;53.90;;;;;;;-15.18;100.00;99625.22;5033716;28;20045;-68
2021/12/27 00:40:20;;;;;;;144.53;53.30;;;;;;;-15.19;100.00;99636.94;5034495;28;20052;-69
2021/12/27 00:43:06;;;;;;;137.10;49.93;;;;;;;-15.14;100.00;99633.13;5033796;28;20045;-68
2021/12/27 00:45:50;;;;;;;139.23;48.00;;;;;;;-15.26;100.00;99632.22;5034327;28;20046;-69
2021/12/27 00:48:35;;;;;;;148.40;50.87;;;;;;;-15.29;100.00;99631.13;5019741;28;20041;-69
2021/12/27 00:51:19;;;;;;;125.13;44.27;;;;;;;-15.28;100.00;99640.41;5034258;28;20443;-70
2021/12/27 00:54:04;;;;;;;149.60;49.63;;;;;;;-15.31;100.00;99638.53;5033515;28;20109;-70
2021/12/27 00:56:48;;;;;;;146.40;50.63;;;;;;;-15.40;100.00;99636.25;5034221;28;20041;-70
2021/12/27 00:59:33;;;;;;;144.87;47.17;;;;;;;-15.43;100.00;99627.59;5033915;28;20045;-71
2021/12/27 01:02:17;;;;;;;145.40;48.93;;;;;;;-15.49;100.00;99628.03;5033306;28;20061;-70
2021/12/27 01:05:03;;;;;;;145.23;48.67;;;;;;;-15.41;100.00;99634.47;5019517;28;20040;-70
2021/12/27 01:07:48;;;;;;;134.60;49.30;;;;;;;-15.48;100.00;99628.88;5033254;28;20329;-71
2021/12/27 01:13:37;;;;;;;133.53;45.37;;;;;;;-15.55;100.00;99633.44;5033987;28;20551;-71
2021/12/27 01:16:21;;;;;;;137.10;50.20;;;;;;;-15.63;100.00;99632.03;5033135;28;20045;-70
2021/12/27 01:19:07;;;;;;;136.23;50.40;;;;;;;-15.57;100.00;99624.03;5033305;28;20046;-70
2021/12/27 01:21:51;;;;;;;161.03;59.23;;;;;;;-15.57;100.00;99614.88;5032825;28;20038;-70
2021/12/27 01:24:36;;;;;;;136.10;49.33;;;;;;;-15.61;100.00;99614.53;5032994;28;20041;-70
2021/12/27 01:27:20;;;;;;;138.30;48.70;;;;;;;-15.67;100.00;99619.13;5032805;28;20049;-70
2021/12/27 01:30:07;;;;;;;124.70;46.30;;;;;;;-15.64;100.00;99619.34;5033651;28;20446;-71
2021/12/27 01:32:57;;;;;;;132.60;47.87;;;;;;;-15.70;100.00;99622.28;5033790;28;20085;-71
2021/12/27 01:35:42;;;;;;;136.63;47.20;;;;;;;-15.59;100.00;99628.09;5033170;28;20041;-70
2021/12/27 01:38:27;;;;;;;147.70;48.67;;;;;;;-15.57;100.00;99619.03;5032777;28;20431;-71
2021/12/27 01:41:15;;;;;;;132.87;50.07;;;;;;;-15.71;100.00;99607.13;5033598;28;20037;-70
2021/12/27 01:44:00;;;;;;;123.40;42.40;;;;;;;-15.78;100.00;99607.44;5033486;28;20371;-70
2021/12/27 01:46:44;;;;;;;132.53;47.27;;;;;;;-15.66;100.00;99608.31;5032805;28;20057;-70
2021/12/27 01:49:29;;;;;;;133.37;46.90;;;;;;;-15.70;100.00;99608.88;5032658;28;20053;-70
2021/12/27 01:52:13;;;;;;;124.87;46.60;;;;;;;-15.77;100.00;99607.53;5032693;28;20037;-70
2021/12/27 01:54:57;;;;;;;137.03;47.90;;;;;;;-15.72;100.00;99621.31;5018739;28;20049;-70
2021/12/27 01:57:42;;;;;;;129.13;43.33;;;;;;;-15.68;100.00;99632.47;5033251;28;20046;-70
2021/12/27 02:00:27;;;;;;;130.53;47.07;;;;;;;-15.66;100.00;99626.78;5033066;28;20050;-70
2021/12/27 02:03:15;;;;;;;125.77;45.73;;;;;;;-15.65;100.00;99613.44;5033169;28;20405;-70
2021/12/27 02:06:00;;;;;;;133.03;46.27;;;;;;;-15.80;100.00;99613.19;5033087;28;20037;-70
2021/12/27 02:08:46;;;;;;;135.93;44.80;;;;;;;-15.81;100.00;99620.63;5033241;28;20053;-70
2021/12/27 02:11:34;;;;;;;148.00;49.60;;;;;;;-15.83;100.00;99625.50;5033015;28;20045;-71
2021/12/27 02:14:19;;;;;;;128.23;45.50;;;;;;;-15.85;100.00;99622.03;5032285;28;20344;-69
2021/12/27 02:17:03;;;;;;;145.93;51.07;;;;;;;-15.86;100.00;99622.78;5033124;28;20045;-68
2021/12/27 02:19:49;;;;;;;132.77;45.97;;;;;;;-15.82;100.00;99622.25;5033215;28;20053;-68
2021/12/27 02:22:36;;;;;;;140.77;46.33;;;;;;;-15.79;100.00;99619.13;5032288;28;20672;-68
2021/12/27 02:25:21;;;;;;;136.53;47.97;;;;;;;-15.80;100.00;99618.22;5032918;28;20045;-68
2021/12/27 02:28:07;;;;;;;136.17;50.53;;;;;;;-15.88;100.00;99609.25;5033118;28;20049;-69
2021/12/27 02:30:54;;;;;;;149.70;50.40;;;;;;;-15.91;100.00;99610.66;5032888;28;20041;-68
2021/12/27 02:33:40;;;;;;;142.67;47.00;;;;;;;-15.91;100.00;99606.50;5033300;28;20042;-68
2021/12/27 02:36:25;;;;;;;139.30;49.10;;;;;;;-15.94;100.00;99605.41;5036450;28;20052;-68
2021/12/27 02:39:10;;;;;;;142.03;48.93;;;;;;;-15.97;100.00;99592.63;5035554;28;20045;-68
2021/12/27 02:41:55;;;;;;;136.03;47.60;;;;;;;-15.92;100.00;99593.81;5036533;28;20072;-68
2021/12/27 02:44:39;;;;;;;137.07;50.07;;;;;;;-15.83;100.00;99585.34;5035429;28;20052;-68
2021/12/27 02:47:23;;;;;;;138.90;50.03;;;;;;;-15.87;100.00;99592.56;5036165;28;20038;-68
2021/12/27 02:50:08;;;;;;;131.10;45.57;;;;;;;-15.94;100.00;99588.69;5036151;28;20053;-68
2021/12/27 02:52:54;;;;;;;149.47;48.60;;;;;;;-16.00;100.00;99582.34;5036272;28;20048;-68
2021/12/27 02:55:39;;;;;;;131.13;47.47;;;;;;;-15.96;100.00;99572.63;5036035;28;20056;-68
2021/12/27 02:58:26;;;;;;;143.93;46.93;;;;;;;-15.95;100.00;99579.44;5035309;28;20355;-68
2021/12/27 03:01:16;;;;;;;148.50;46.33;;;;;;;-16.01;100.00;99578.09;5021363;28;20054;-68
2021/12/27 03:04:01;;;;;;;123.67;42.17;;;;;;;-16.03;100.00;99573.81;5035311;28;20053;-68
2021/12/27 03:06:45;;;;;;;136.53;45.13;;;;;;;-16.12;100.00;99568.09;5035212;28;20038;-68
2021/12/27 03:09:29;;;;;;;123.30;44.80;;;;;;;-16.05;100.00;99555.28;5035807;28;20370;-70
2021/12/27 03:12:14;;;;;;;138.37;46.50;;;;;;;-16.09;100.00;99555.78;5035078;28;20120;-70
2021/12/27 03:14:58;;;;;;;118.90;43.40;;;;;;;-16.05;100.00;99559.41;5035899;28;20041;-70
2021/12/27 03:17:44;;;;;;;121.07;42.60;;;;;;;-16.06;100.00;99552.63;5035896;28;20059;-70
2021/12/27 03:20:29;;;;;;;128.93;46.17;;;;;;;-16.00;100.00;99559.75;5034977;28;20336;-70
2021/12/27 03:23:14;;;;;;;114.10;42.70;;;;;;;-15.95;100.00;99553.44;5021075;28;20044;-70
2021/12/27 03:25:58;;;;;;;133.27;50.00;;;;;;;-15.88;100.00;99555.66;5035583;28;20037;-70
2021/12/27 03:28:43;;;;;;;132.70;43.77;;;;;;;-15.69;100.00;99562.94;5035678;28;20042;-70
2021/12/27 03:31:28;;;;;;;113.83;40.60;;;;;;;-15.56;100.00;99558.88;5020895;28;20354;-71
2021/12/27 03:34:12;;;;;;;117.67;40.93;;;;;;;-15.68;100.00;99557.13;5035581;28;20045;-70
2021/12/27 03:36:57;;;;;;;125.03;44.87;;;;;;;-15.73;100.00;99563.44;5035401;28;20503;-68
2021/12/27 03:39:41;;;;;;;120.63;43.83;;;;;;;-15.81;100.00;99561.25;5034705;28;20037;-68
2021/12/27 03:42:26;;;;;;;136.53;41.90;;;;;;;-15.77;100.00;99566.50;5035218;28;20115;-68
2021/12/27 03:45:10;;;;;;;114.20;43.30;;;;;;;-15.77;100.00;99563.97;5035114;28;20041;-68
2021/12/27 03:47:56;;;;;;;118.53;45.33;;;;;;;-15.82;100.00;99549.47;5034641;28;20129;-68
2021/12/27 03:50:41;;;;;;;112.53;40.30;;;;;;;-15.86;100.00;99541.56;5034573;28;20042;-68
2021/12/27 03:53:25;;;;;;;119.90;46.33;;;;;;;-15.87;100.00;99549.88;5034534;28;20053;-68
2021/12/27 03:56:10;;;;;;;114.67;44.10;;;;;;;-16.08;100.00;99559.19;5035562;28;20041;-68
2021/12/27 03:58:58;;;;;;;124.40;42.80;;;;;;;-16.04;100.00;99543.59;5035229;28;20050;-68
2021/12/27 04:01:42;;;;;;;131.43;46.80;;;;;;;-16.09;100.00;99542.38;5035033;28;20052;-68
2021/12/27 04:04:27;;;;;;;123.63;45.47;;;;;;;-16.06;100.00;99545.13;5035318;28;20042;-68
2021/12/27 04:07:13;;;;;;;106.00;41.77;;;;;;;-16.05;100.00;99547.75;5034518;28;20050;-68
2021/12/27 04:09:57;;;;;;;111.90;40.57;;;;;;;-16.11;100.00;99549.81;5034960;28;20439;-68
2021/12/27 04:12:42;;;;;;;104.13;39.90;;;;;;;-16.17;100.00;99563.53;5034220;28;20049;-68
2021/12/27 04:15:26;;;;;;;139.57;44.37;;;;;;;-16.07;100.00;99571.84;5034905;28;20038;-68
2021/12/27 04:18:11;;;;;;;134.03;46.00;;;;;;;-16.06;100.00;99570.22;5034967;28;20045;-68
2021/12/27 04:20:56;;;;;;;121.90;42.30;;;;;;;-16.08;100.00;99557.56;5034941;28;20041;-68
2021/12/27 04:23:41;;;;;;;133.83;44.97;;;;;;;-16.08;100.00;99561.72;5034364;28;20049;-68
2021/12/27 04:26:25;;;;;;;122.90;42.73;;;;;;;-16.09;100.00;99552.41;5033879;28;20128;-68
2021/12/27 04:29:10;;;;;;;132.30;44.63;;;;;;;-16.20;100.00;99564.16;5034786;28;20041;-68
2021/12/27 04:31:54;;;;;;;128.10;43.33;;;;;;;-16.18;100.00;99569.28;5034064;28;20045;-68
2021/12/27 04:34:38;;;;;;;126.17;46.03;;;;;;;-16.11;100.00;99567.38;5033820;28;20079;-68
2021/12/27 04:37:23;;;;;;;121.80;41.87;;;;;;;-16.12;100.00;99567.22;5034635;28;20046;-68
2021/12/27 04:40:10;;;;;;;130.13;45.93;;;;;;;-16.11;100.00;99569.88;5033723;28;20498;-68
2021/12/27 04:42:59;;;;;;;126.83;41.67;;;;;;;-16.07;100.00;99563.44;5033790;28;20037;-68
2021/12/27 04:45:45;;;;;;;120.27;41.60;;;;;;;-16.14;100.00;99563.75;5034383;28;20041;-68
2021/12/27 04:48:30;;;;;;;128.67;44.73;;;;;;;-16.17;100.00;99550.97;5033653;28;20053;-68
2021/12/27 04:51:15;;;;;;;131.77;46.50;;;;;;;-16.14;100.00;99549.56;5034184;28;20465;-70
2021/12/27 04:53:59;;;;;;;117.23;44.53;;;;;;;-16.17;100.00;99534.28;5034438;28;20045;-70
2021/12/27 04:56:46;;;;;;;129.13;47.23;;;;;;;-16.11;100.00;99538.91;5032959;28;20049;-68
2021/12/27 04:59:30;;;;;;;121.27;43.10;;;;;;;-16.08;100.00;99540.00;5034028;28;20046;-68
2021/12/27 05:02:15;;;;;;;117.60;42.30;;;;;;;-16.10;100.00;99538.13;5034224;28;20045;-68
2021/12/27 05:04:59;;;;;;;117.90;41.40;;;;;;;-16.12;100.00;99538.00;5033543;28;20041;-69
2021/12/27 05:07:44;;;;;;;93.37;35.87;;;;;;;-16.07;100.00;99559.31;5033533;28;20041;-68
2021/12/27 05:10:30;;;;;;;109.90;38.90;;;;;;;-15.97;100.00;99550.81;5034403;28;20053;-68
2021/12/27 05:13:17;;;;;;;114.13;37.97;;;;;;;-15.85;100.00;99533.31;5032999;28;20447;-68
2021/12/27 05:16:02;;;;;;;108.67;40.40;;;;;;;-15.76;100.00;99538.09;5031467;28;20060;-68
2021/12/27 05:18:47;;;;;;;104.37;39.90;;;;;;;-15.78;100.00;99530.47;5017732;28;20427;-68
2021/12/27 05:21:31;;;;;;;100.47;37.70;;;;;;;-15.75;100.00;99534.84;5031616;28;20470;-68
2021/12/27 05:24:15;;;;;;;102.43;37.07;;;;;;;-15.76;100.00;99530.56;5017694;28;20320;-68
2021/12/27 05:27:00;;;;;;;95.50;37.57;;;;;;;-15.61;100.00;99529.16;5032209;28;20046;-68
2021/12/27 05:29:44;;;;;;;112.70;40.10;;;;;;;-15.47;100.00;99527.66;5032394;28;20489;-68
2021/12/27 05:32:28;;;;;;;105.27;39.43;;;;;;;-15.36;100.00;99526.81;5032232;28;20424;-68
2021/12/27 05:35:14;;;;;;;96.60;38.27;;;;;;;-15.36;100.00;99537.72;5033549;28;20042;-68
2021/12/27 05:37:58;;;;;;;90.23;36.17;;;;;;;-15.34;100.00;99542.84;5031843;28;20047;-68
2021/12/27 05:40:42;;;;;;;103.93;39.27;;;;;;;-15.34;100.00;99540.31;5031051;28;20041;-68
2021/12/27 05:43:27;;;;;;;114.53;42.03;;;;;;;-15.31;100.00;99546.44;5031667;28;20038;-68
2021/12/27 05:46:11;;;;;;;252.37;128.07;;;;;;;-15.28;100.00;99545.78;5031621;28;20037;-68
2021/12/27 05:48:56;;;;;;;151.67;73.23;;;;;;;-15.36;100.00;99542.75;5030929;28;20041;-69
2021/12/27 05:51:43;;;;;;;132.20;51.93;;;;;;;-15.40;100.00;99535.75;5031827;28;20047;-69
2021/12/27 05:54:27;;;;;;;103.63;42.40;;;;;;;-15.34;100.00;99535.31;5032609;28;20435;-69
2021/12/27 05:57:12;;;;;;;106.90;40.47;;;;;;;-15.27;100.00;99532.50;5032745;28;20061;-68
2021/12/27 05:59:57;;;;;;;101.30;40.23;;;;;;;-15.25;100.00;99541.00;5032673;28;20451;-69
2021/12/27 06:02:43;;;;;;;110.33;38.33;;;;;;;-15.31;100.00;99528.00;5032855;28;20447;-68
2021/12/27 06:05:27;;;;;;;98.57;40.07;;;;;;;-15.19;100.00;99528.88;5033045;28;20388;-69
2021/12/27 06:08:12;;;;;;;111.40;42.53;;;;;;;-15.17;100.00;99529.88;5032040;28;20038;-68
2021/12/27 06:10:56;;;;;;;91.93;37.47;;;;;;;-15.22;100.00;99517.72;5033272;28;20038;-69
2021/12/27 06:13:41;;;;;;;102.70;40.57;;;;;;;-15.19;100.00;99525.50;5033178;28;20049;-68
2021/12/27 06:16:26;;;;;;;91.53;34.90;;;;;;;-15.15;100.00;99529.97;5033115;28;20124;-69
2021/12/27 06:19:11;;;;;;;84.87;32.20;;;;;;;-15.16;100.00;99529.09;5033110;28;20401;-69
2021/12/27 06:21:56;;;;;;;77.93;29.07;;;;;;;-15.10;100.00;99529.53;5033023;28;20038;-69
2021/12/27 06:24:41;;;;;;;82.33;27.63;;;;;;;-15.04;100.00;99525.69;5032276;28;20052;-68
2021/12/27 06:27:25;;;;;;;86.90;30.23;;;;;;;-15.06;100.00;99525.59;5032110;28;20037;-69
2021/12/27 06:30:11;;;;;;;99.37;38.77;;;;;;;-14.89;100.00;99521.75;5032190;28;20053;-69
2021/12/27 06:32:55;;;;;;;96.00;39.30;;;;;;;-14.91;100.00;99526.69;5033120;28;20046;-69
2021/12/27 06:35:40;;;;;;;83.90;33.00;;;;;;;-14.96;100.00;99520.44;5032868;28;20053;-69
2021/12/27 06:38:25;;;;;;;77.17;32.13;;;;;;;-14.96;100.00;99524.59;5031959;28;20038;-69
2021/12/27 06:41:10;;;;;;;82.80;30.37;;;;;;;-14.92;100.00;99517.38;5032776;28;20033;-69
2021/12/27 06:43:55;;;;;;;82.47;32.37;;;;;;;-14.92;100.00;99524.03;5032852;28;20046;-69
2021/12/27 06:46:39;;;;;;;91.17;31.93;;;;;;;-14.92;100.00;99527.44;5018029;28;20420;-68
2021/12/27 06:49:23;;;;;;;90.70;31.63;;;;;;;-14.82;100.00;99531.47;5032021;28;20140;-69
2021/12/27 06:52:08;;;;;;;79.07;30.60;;;;;;;-14.68;100.00;99533.31;5032030;28;20045;-69
2021/12/27 06:54:52;;;;;;;88.87;33.83;;;;;;;-14.63;100.00;99534.50;5031917;28;20332;-69
2021/12/27 06:57:38;;;;;;;98.57;33.50;;;;;;;-14.64;100.00;99521.81;5031839;28;20351;-69
2021/12/27 07:00:22;;;;;;;101.10;37.47;;;;;;;-14.65;100.00;99520.97;5031699;28;20152;-69
2021/12/27 07:03:07;;;;;;;106.40;39.20;;;;;;;-14.54;100.00;99518.31;5031776;28;20060;-69
2021/12/27 07:05:52;;;;;;;110.50;38.43;;;;;;;-14.54;100.00;99514.16;5032640;28;20095;-69
2021/12/27 07:08:37;;;;;;;104.87;43.10;;;;;;;-14.31;100.00;99522.34;5026523;28;20470;-69
2021/12/27 07:11:21;;;;;;;114.17;39.47;;;;;;;-14.25;100.00;99516.09;5032701;28;20061;-73
2021/12/27 07:14:05;;;;;;;95.47;35.00;;;;;;;-14.21;100.00;99520.56;5031753;28;20061;-74
2021/12/27 07:16:50;;;;;;;88.87;34.83;;;;;;;-14.15;100.00;99512.56;5018367;28;20045;-74
2021/12/27 07:19:34;;;;;;;100.40;33.50;;;;;;;-14.07;100.00;99511.41;5032880;28;20041;-74
2021/12/27 07:22:19;;;;;;;87.27;35.07;;;;;;;-14.01;100.00;99505.91;5036108;28;20041;-74
2021/12/27 07:25:04;;;;;;;86.60;35.30;;;;;;;-13.96;100.00;99512.16;5035261;28;20037;-74
2021/12/27 07:27:48;;;;;;;90.87;35.73;;;;;;;-13.95;100.00;99502.16;5035292;28;20037;-74
2021/12/27 07:30:33;;;;;;;109.83;37.20;;;;;;;-13.99;100.00;99490.16;5035189;28;20440;-74
2021/12/27 07:33:17;;;;;;;87.93;35.47;;;;;;;-13.91;100.00;99498.19;5021184;28;20431;-74
2021/12/27 07:36:03;;;;;;;97.87;39.30;;;;;;;-13.79;100.00;99508.22;5036028;28;20371;-74
2021/12/27 07:38:48;;;;;;;103.13;38.27;;;;;;;-13.79;100.00;99506.56;5035427;28;20076;-74
2021/12/27 07:41:33;;;;;;;100.20;38.60;;;;;;;-13.73;100.00;99506.97;5035666;28;20041;-74
2021/12/27 07:44:17;;;;;;;89.20;35.53;;;;;;;-13.70;100.00;99508.81;5020950;28;20068;-74
2021/12/27 07:47:03;;;;;;;85.43;36.60;;;;;;;-13.67;100.00;99501.47;5035051;28;20068;-74
2021/12/27 07:49:47;;;;;;;97.50;38.53;;;;;;;-13.61;100.00;99500.97;5035645;28;20112;-75
2021/12/27 07:52:32;;;;;;;102.60;38.03;;;;;;;-13.55;100.00;99501.38;5035620;28;20041;-74
2021/12/27 07:55:18;;;;;;;90.90;38.60;;;;;;;-13.56;100.00;99502.16;5035023;28;20332;-74
2021/12/27 07:58:03;;;;;;;90.10;35.73;;;;;;;-13.40;100.00;99499.84;5035054;28;20053;-74
2021/12/27 08:00:50;;;;;;;97.50;39.00;;;;;;;-13.30;100.00;99493.75;5035614;28;20057;-74
2021/12/27 08:03:34;;;;;;;101.47;38.77;;;;;;;-13.18;100.00;99500.41;5038440;28;20049;-74
2021/12/27 08:06:18;;;;;;;109.37;42.37;;;;;;;-12.87;100.00;99493.88;5036272;28;20041;-74
2021/12/27 08:09:05;;;;;;;104.33;39.70;;;;;;;-12.68;100.00;99495.91;5036462;28;20045;-74
2021/12/27 08:11:49;;;;;;;103.67;39.67;;;;;;;-12.57;100.00;99487.34;5036182;28;20116;-74
2021/12/27 08:14:33;;;;;;;116.77;43.13;;;;;;;-12.44;100.00;99482.28;5034967;28;20045;-74
2021/12/27 08:17:18;;;;;;;105.70;40.40;;;;;;;-12.15;100.00;99480.59;5034606;28;20102;-69
2021/12/27 08:20:04;;;;;;;114.53;43.57;;;;;;;-12.08;100.00;99477.66;5034950;28;20454;-69
2021/12/27 08:22:49;;;;;;;118.83;48.47;;;;;;;-11.94;100.00;99479.34;5034996;28;20042;-69
2021/12/27 08:25:34;;;;;;;123.40;46.13;;;;;;;-11.57;100.00;99483.94;5020784;28;20049;-69
2021/12/27 08:28:19;;;;;;;120.07;46.80;;;;;;;-11.47;100.00;99491.28;5035281;28;20045;-69
2021/12/27 08:31:03;;;;;;;125.03;47.30;;;;;;;-11.32;100.00;99492.13;5033750;28;20065;-69
2021/12/27 08:33:48;;;;;;;120.47;46.67;;;;;;;-11.06;100.00;99488.53;5034087;28;20042;-69
2021/12/27 08:36:32;;;;;;;135.13;53.70;;;;;;;-10.85;100.00;99493.91;5020104;28;20057;-69
2021/12/27 08:39:16;;;;;;;112.27;47.17;;;;;;;-10.79;100.00;99482.34;5034583;28;20075;-69
2021/12/27 08:42:03;;;;;;;115.60;47.47;;;;;;;-10.65;100.00;99473.84;5034014;28;20052;-69
2021/12/27 08:44:48;;;;;;;187.57;62.87;;;;;;;-10.54;100.00;99482.00;5034171;28;20072;-69
2021/12/27 08:47:32;;;;;;;124.90;52.00;;;;;;;-10.42;100.00;99472.53;5034650;28;20052;-69
2021/12/27 08:50:17;;;;;;;112.30;45.77;;;;;;;-10.37;100.00;99468.56;5034767;28;20049;-69
2021/12/27 08:53:02;;;;;;;117.10;46.97;;;;;;;-10.07;100.00;99470.91;5034990;28;20116;-70
2021/12/27 08:55:46;;;;;;;126.10;47.07;;;;;;;-9.82;100.00;99467.94;5034169;28;20045;-70
2021/12/27 08:58:30;;;;;;;117.70;48.03;;;;;;;-9.77;100.00;99466.53;5034928;28;20041;-70
2021/12/27 09:01:14;;;;;;;105.57;44.03;;;;;;;-9.67;100.00;99463.66;5035699;28;20471;-70
2021/12/27 09:03:59;;;;;;;109.70;46.70;;;;;;;-9.62;100.00;99463.88;5034315;28;20038;-70
2021/12/27 09:06:43;;;;;;;103.82;43.22;;;;;;;-9.21;100.00;99465.88;5034011;28;20037;-70
2021/12/27 09:09:28;;;;;;;113.50;44.75;;;;;;;-9.18;100.00;99459.28;5020204;28;20052;-70
2021/12/27 09:12:13;;;;;;;115.50;43.63;;;;;;;-8.75;100.00;99455.34;5034155;28;20348;-70
2021/12/27 09:14:57;;;;;;;118.82;49.05;;;;;;;-8.51;100.00;99453.06;5034650;28;20041;-71
2021/12/27 09:17:42;;;;;;;99.47;43.47;;;;;;;-8.68;100.00;99451.41;5033974;28;20060;-70
2021/12/27 09:20:28;;;;;;;76.70;37.65;;;;;;;-8.44;100.00;99449.97;5034063;28;20359;-70
2021/12/27 09:23:12;;;;;;;86.68;37.40;;;;;;;-8.51;100.00;99447.97;5019372;28;20045;-70
2021/12/27 09:25:57;;;;;;;77.00;35.83;;;;;;;-8.19;100.00;99456.97;5033511;28;20113;-70
2021/12/27 09:28:41;;;;;;;72.43;32.95;;;;;;;-8.24;100.00;99443.19;5034208;28;20079;-70
2021/12/27 09:31:26;;;;;;;71.43;30.38;;;;;;;-8.17;100.00;99436.72;5019328;28;20389;-70
2021/12/27 09:34:11;;;;;;;76.43;32.20;;;;;;;-7.81;100.00;99434.88;5033727;28;20404;-70
2021/12/27 09:36:55;;;;;;;66.75;28.00;;;;;;;-7.83;100.00;99434.81;5033888;28;20336;-70
2021/12/27 09:39:40;;;;;;;70.65;27.23;;;;;;;-7.96;100.00;99430.03;5033739;28;20458;-70
2021/12/27 09:42:26;;;;;;;66.15;28.52;;;;;;;-7.68;100.00;99424.38;5034117;28;20046;-70
2021/12/27 09:45:11;;;;;;;72.95;34.45;;;;;;;-7.72;100.00;99419.13;5033702;28;20042;-70
2021/12/27 09:47:56;;;;;;;72.72;32.40;;;;;;;-7.73;100.00;99430.09;5033618;28;20090;-70
2021/12/27 09:50:43;;;;;;;82.40;36.03;;;;;;;-7.73;100.00;99427.53;5032957;28;20333;-70
2021/12/27 09:53:27;;;;;;;82.55;32.38;;;;;;;-7.90;100.00;99422.63;5034104;28;20042;-70
2021/12/27 09:56:12;;;;;;;162.88;58.45;;;;;;;-7.80;100.00;99409.50;5033081;28;20124;-70
2021/12/27 09:58:57;;;;;;;90.40;39.05;;;;;;;-7.74;100.00;99413.09;5033876;28;20038;-70
2021/12/27 10:01:41;;;;;;;93.32;36.50;;;;;;;-7.34;100.00;99407.97;5033484;28;20045;-70
2021/12/27 10:04:26;;;;;;;93.10;36.45;;;;;;;-7.40;100.00;99406.03;5032895;28;20093;-70
2021/12/27 10:07:18;;;;;;;465.73;155.98;;;;;;;-7.65;100.00;99416.03;5032637;28;20041;-70
2021/12/27 10:10:03;;;;;;;180.88;77.93;;;;;;;-7.60;100.00;99402.69;5033171;28;20041;-70
2021/12/27 10:12:48;;;;;;;68.30;32.22;;;;;;;-7.58;100.00;99403.59;5031471;28;20042;-70
2021/12/27 10:15:38;;;;;;;71.45;31.05;;;;;;;-7.53;100.00;99398.72;5089334;28;20038;-70
2021/12/27 10:18:23;;;;;;;71.07;31.13;;;;;;;-7.21;100.00;99399.09;5030613;28;20110;-70
2021/12/27 10:21:13;;;;;;;65.28;28.48;;;;;;;-7.32;100.00;99391.91;5031298;28;20045;-70
2021/12/27 10:24:27;;;;;;;71.03;31.02;;;;;;;-7.12;100.00;99377.41;5030492;28;20424;-70
2021/12/27 10:27:12;;;;;;;66.17;28.00;;;;;;;-7.36;100.00;99374.81;5030562;28;20053;-70
2021/12/27 10:29:56;;;;;;;75.03;30.33;;;;;;;-7.12;100.00;99377.41;5016925;28;20304;-70
2021/12/27 10:32:40;;;;;;;100.72;33.97;;;;;;;-7.19;100.00;99382.22;5030562;28;20046;-70
2021/12/27 10:35:33;;;;;;;75.15;33.70;;;;;;;-6.87;100.00;99363.94;5031182;28;20131;-70
2021/12/27 10:38:24;;;;;;;114.32;46.95;;;;;;;-6.99;100.00;99360.94;5017787;28;20052;-70
2021/12/27 10:41:10;;;;;;;127.80;44.60;;;;;;;-6.94;100.00;99356.88;5032827;28;20468;-70
2021/12/27 10:43:57;;;;;;;174.65;53.92;;;;;;;-6.93;100.00;99355.19;5032554;28;20049;-70
2021/12/27 10:46:41;;;;;;;125.03;42.15;;;;;;;-6.64;100.00;99356.28;5032746;28;20037;-70
2021/12/27 10:49:48;;;;;;;167.65;55.80;;;;;;;-6.73;100.00;99343.19;5032015;28;20045;-70
2021/12/27 10:52:43;;;;;;;451.05;128.23;;;;;;;-6.71;100.00;99361.97;5031573;28;20321;-70
2021/12/27 10:55:40;;;;;;;108.90;45.17;;;;;;;-6.77;100.00;99354.97;5034651;28;20132;-70
2021/12/27 10:58:26;;;;;;;83.35;35.25;;;;;;;-6.48;100.00;99353.47;5035935;28;20120;-70
2021/12/27 11:01:18;;;;;;;77.95;38.35;;;;;;;-6.37;100.00;99357.28;5035146;28;20056;-70
2021/12/27 11:04:02;;;;;;;127.10;48.45;;;;;;;-6.34;100.00;99338.63;5035124;28;20041;-70
2021/12/27 11:06:49;;;;;;;76.10;38.65;;;;;;;-6.30;100.00;99343.06;5034082;28;20037;-70
2021/12/27 11:09:35;;;;;;;64.63;26.35;;;;;;;-6.44;100.00;99334.03;5034008;28;20041;-70
2021/12/27 11:12:19;;;;;;;68.40;28.90;;;;;;;-6.18;100.00;99328.16;5034073;28;20095;-70
2021/12/27 11:15:09;;;;;;;62.90;27.92;;;;;;;-6.21;100.00;99324.63;5033180;28;20042;-70
2021/12/27 11:17:55;;;;;;;61.55;26.15;;;;;;;-6.21;100.00;99311.88;5033316;28;20102;-70
2021/12/27 11:20:50;;;;;;;63.03;27.73;;;;;;;-6.14;100.00;99318.97;5034429;28;20121;-70
2021/12/27 11:23:35;;;;;;;74.80;31.27;;;;;;;-6.25;100.00;99312.59;5034910;28;20053;-70
2021/12/27 11:26:26;;;;;;;66.45;28.73;;;;;;;-6.23;100.00;99311.00;5035453;28;20042;-70
2021/12/27 11:29:19;;;;;;;72.10;28.67;;;;;;;-6.36;100.00;99307.16;5021027;28;20053;-70
2021/12/27 11:32:16;;;;;;;66.38;28.08;;;;;;;-6.18;100.00;99305.22;5035118;28;20052;-70
2021/12/27 11:35:09;;;;;;;58.47;25.60;;;;;;;-6.24;100.00;99305.03;5035284;28;20045;-70
2021/12/27 11:37:56;;;;;;;89.67;33.00;;;;;;;-5.91;100.00;99286.53;5035828;28;20046;-70
2021/12/27 11:40:44;;;;;;;97.80;36.08;;;;;;;-6.00;100.00;99289.66;5034733;28;20041;-70
2021/12/27 11:43:47;;;;;;;60.85;26.75;;;;;;;-6.10;100.00;99289.31;5035722;28;20048;-70
2021/12/27 11:46:47;;;;;;;59.28;25.20;;;;;;;-5.91;100.00;99287.38;5035225;28;20045;-70
2021/12/27 11:49:58;;;;;;;59.42;26.88;;;;;;;-5.80;100.00;99282.63;5034607;28;20439;-70
2021/12/27 11:52:47;;;;;;;62.15;24.10;;;;;;;-5.79;100.00;99279.22;5034533;28;20048;-70
2021/12/27 11:55:39;;;;;;;206.65;68.63;;;;;;;-6.00;100.00;99288.81;5034783;28;20041;-69
2021/12/27 11:58:35;;;;;;;71.10;29.42;;;;;;;-6.12;100.00;99273.94;5020562;28;20048;-70
2021/12/27 12:01:22;;;;;;;56.47;25.55;;;;;;;-5.93;100.00;99281.38;5020327;28;20061;-70
2021/12/27 12:04:06;;;;;;;63.50;25.45;;;;;;;-5.94;100.00;99276.25;5034722;28;20041;-70
2021/12/27 12:06:51;;;;;;;62.88;28.40;;;;;;;-5.87;100.00;99270.50;5033164;28;20040;-70
2021/12/27 12:09:46;;;;;;;81.15;28.67;;;;;;;-5.80;100.00;99264.75;5020458;28;20363;-70
2021/12/27 12:12:33;;;;;;;54.42;24.80;;;;;;;-5.89;100.00;99259.34;5020293;28;20144;-70
2021/12/27 12:15:27;;;;;;;292.60;89.50;;;;;;;-5.76;100.00;99242.75;5034704;28;20044;-70
2021/12/27 12:18:17;;;;;;;;;;;;;;;-5.85;100.00;99252.66;5035317;28;20046;-70
2021/12/27 12:21:03;;;;;;;74.57;26.98;;;;;;;-5.55;100.00;99251.06;5034362;28;20323;-70
2021/12/27 12:23:59;;;;;;;62.55;27.60;;;;;;;-5.77;100.00;99238.47;5034751;28;20049;-70
2021/12/27 12:26:54;;;;;;;67.25;24.17;;;;;;;-5.75;100.00;99240.25;5034908;28;20095;-70